sensor_id;sensor_type;location;lat;lon;timestamp;P1;durP1;ratioP1;P2;durP2;ratioP2
76848;SDS011;65814;51.134;16.980;2023-02-13T00:01:28;17.30;;;8.80;;
76848;SDS011;65814;51.134;16.980;2023-02-13T00:03:56;13.10;;;9.50;;
76848;SDS011;65814;51.134;16.980;2023-02-13T00:06:23;16.20;;;8.90;;
76848;SDS011;65814;51.134;16.980;2023-02-13T00:08:51;18.10;;;9.20;;
76848;SDS011;65814;51.134;16.980;2023-02-13T00:11:19;15.90;;;9.30;;
76848;SDS011;65814;51.134;16.980;2023-02-13T00:13:47;16.10;;;9.20;;
76848;SDS011;65814;51.134;16.980;2023-02-13T00:16:15;15.00;;;8.60;;
76848;SDS011;65814;51.134;16.980;2023-02-13T00:18:43;17.60;;;9.40;;
76848;SDS011;65814;51.134;16.980;2023-02-13T00:21:11;18.90;;;8.80;;
76848;SDS011;65814;51.134;16.980;2023-02-13T00:23:40;16.60;;;9.20;;
76848;SDS011;65814;51.134;16.980;2023-02-13T00:26:10;15.40;;;8.50;;
76848;SDS011;65814;51.134;16.980;2023-02-13T00:28:39;19.30;;;8.30;;
76848;SDS011;65814;51.134;16.980;2023-02-13T00:31:09;14.20;;;9.40;;
76848;SDS011;65814;51.134;16.980;2023-02-13T00:33:39;16.10;;;7.80;;
76848;SDS011;65814;51.134;16.980;2023-02-13T00:36:08;13.00;;;8.10;;
76848;SDS011;65814;51.134;16.980;2023-02-13T00:38:44;18.40;;;10.20;;
76848;SDS011;65814;51.134;16.980;2023-02-13T00:41:12;14.00;;;8.60;;
76848;SDS011;65814;51.134;16.980;2023-02-13T00:43:41;17.30;;;9.70;;
76848;SDS011;65814;51.134;16.980;2023-02-13T00:46:10;12.40;;;8.20;;
76848;SDS011;65814;51.134;16.980;2023-02-13T00:48:38;15.00;;;7.60;;
76848;SDS011;65814;51.134;16.980;2023-02-13T00:51:06;13.60;;;7.80;;
76848;SDS011;65814;51.134;16.980;2023-02-13T00:53:35;15.00;;;8.40;;
76848;SDS011;65814;51.134;16.980;2023-02-13T00:56:04;13.20;;;7.10;;
76848;SDS011;65814;51.134;16.980;2023-02-13T00:58:33;14.10;;;7.00;;
76848;SDS011;65814;51.134;16.980;2023-02-13T01:01:01;18.40;;;8.30;;
76848;SDS011;65814;51.134;16.980;2023-02-13T01:03:29;15.70;;;7.90;;
76848;SDS011;65814;51.134;16.980;2023-02-13T01:05:59;14.90;;;8.20;;
76848;SDS011;65814;51.134;16.980;2023-02-13T01:08:28;17.30;;;8.20;;
76848;SDS011;65814;51.134;16.980;2023-02-13T01:10:55;15.60;;;8.20;;
76848;SDS011;65814;51.134;16.980;2023-02-13T01:13:24;11.10;;;6.60;;
76848;SDS011;65814;51.134;16.980;2023-02-13T01:15:53;13.60;;;8.00;;
76848;SDS011;65814;51.134;16.980;2023-02-13T01:18:21;12.90;;;7.10;;
76848;SDS011;65814;51.134;16.980;2023-02-13T01:20:59;10.60;;;6.50;;
76848;SDS011;65814;51.134;16.980;2023-02-13T01:23:29;13.30;;;6.70;;
76848;SDS011;65814;51.134;16.980;2023-02-13T01:25:58;16.50;;;7.70;;
76848;SDS011;65814;51.134;16.980;2023-02-13T01:28:26;12.50;;;7.00;;
76848;SDS011;65814;51.134;16.980;2023-02-13T01:30:55;12.30;;;7.10;;
76848;SDS011;65814;51.134;16.980;2023-02-13T01:33:25;11.10;;;7.10;;
76848;SDS011;65814;51.134;16.980;2023-02-13T01:35:54;13.90;;;7.40;;
76848;SDS011;65814;51.134;16.980;2023-02-13T01:38:22;11.70;;;7.10;;
76848;SDS011;65814;51.134;16.980;2023-02-13T01:40:51;12.90;;;7.50;;
76848;SDS011;65814;51.134;16.980;2023-02-13T01:43:20;8.90;;;6.30;;
76848;SDS011;65814;51.134;16.980;2023-02-13T01:45:53;14.10;;;7.40;;
76848;SDS011;65814;51.134;16.980;2023-02-13T01:48:23;15.60;;;7.80;;
76848;SDS011;65814;51.134;16.980;2023-02-13T01:53:32;11.30;;;7.20;;
76848;SDS011;65814;51.134;16.980;2023-02-13T01:58:42;12.70;;;7.70;;
76848;SDS011;65814;51.134;16.980;2023-02-13T02:01:13;11.70;;;7.10;;
76848;SDS011;65814;51.134;16.980;2023-02-13T02:03:42;12.70;;;7.00;;
76848;SDS011;65814;51.134;16.980;2023-02-13T02:06:24;11.40;;;7.50;;
76848;SDS011;65814;51.134;16.980;2023-02-13T02:08:56;13.60;;;7.20;;
76848;SDS011;65814;51.134;16.980;2023-02-13T02:11:31;14.80;;;8.50;;
76848;SDS011;65814;51.134;16.980;2023-02-13T02:14:03;14.10;;;7.80;;
76848;SDS011;65814;51.134;16.980;2023-02-13T02:16:31;14.90;;;7.70;;
76848;SDS011;65814;51.134;16.980;2023-02-13T02:19:08;15.70;;;8.10;;
76848;SDS011;65814;51.134;16.980;2023-02-13T02:32:53;13.90;;;7.80;;
76848;SDS011;65814;51.134;16.980;2023-02-13T02:41:25;15.30;;;9.20;;
76848;SDS011;65814;51.134;16.980;2023-02-13T02:49:49;12.40;;;7.50;;
76848;SDS011;65814;51.134;16.980;2023-02-13T02:52:27;12.00;;;8.10;;
76848;SDS011;65814;51.134;16.980;2023-02-13T02:55:13;13.40;;;7.70;;
76848;SDS011;65814;51.134;16.980;2023-02-13T02:58:01;13.80;;;8.20;;
76848;SDS011;65814;51.134;16.980;2023-02-13T03:00:53;14.80;;;8.40;;
76848;SDS011;65814;51.134;16.980;2023-02-13T03:03:40;13.30;;;8.00;;
76848;SDS011;65814;51.134;16.980;2023-02-13T03:06:50;12.70;;;8.10;;
76848;SDS011;65814;51.134;16.980;2023-02-13T03:09:24;12.70;;;8.20;;
76848;SDS011;65814;51.134;16.980;2023-02-13T03:12:16;11.90;;;8.00;;
76848;SDS011;65814;51.134;16.980;2023-02-13T03:15:05;13.40;;;8.40;;
76848;SDS011;65814;51.134;16.980;2023-02-13T03:17:33;14.70;;;8.30;;
76848;SDS011;65814;51.134;16.980;2023-02-13T03:21:23;12.50;;;8.80;;
76848;SDS011;65814;51.134;16.980;2023-02-13T03:23:52;12.00;;;8.10;;
76848;SDS011;65814;51.134;16.980;2023-02-13T03:26:29;16.10;;;9.00;;
76848;SDS011;65814;51.134;16.980;2023-02-13T03:29:19;16.00;;;8.70;;
76848;SDS011;65814;51.134;16.980;2023-02-13T03:38:16;16.90;;;9.80;;
76848;SDS011;65814;51.134;16.980;2023-02-13T03:40:59;18.80;;;10.20;;
76848;SDS011;65814;51.134;16.980;2023-02-13T03:46:34;16.70;;;10.80;;
76848;SDS011;65814;51.134;16.980;2023-02-13T03:49:05;16.40;;;10.20;;
76848;SDS011;65814;51.134;16.980;2023-02-13T03:51:57;18.70;;;10.60;;
76848;SDS011;65814;51.134;16.980;2023-02-13T03:57:34;17.00;;;9.90;;
76848;SDS011;65814;51.134;16.980;2023-02-13T04:00:23;17.60;;;10.50;;
76848;SDS011;65814;51.134;16.980;2023-02-13T04:02:58;18.90;;;10.50;;
76848;SDS011;65814;51.134;16.980;2023-02-13T04:05:34;17.00;;;11.10;;
76848;SDS011;65814;51.134;16.980;2023-02-13T04:08:06;15.00;;;10.60;;
76848;SDS011;65814;51.134;16.980;2023-02-13T04:10:34;16.10;;;9.90;;
76848;SDS011;65814;51.134;16.980;2023-02-13T04:13:09;15.60;;;10.30;;
76848;SDS011;65814;51.134;16.980;2023-02-13T04:18:28;16.50;;;9.70;;
76848;SDS011;65814;51.134;16.980;2023-02-13T04:21:04;18.70;;;10.10;;
76848;SDS011;65814;51.134;16.980;2023-02-13T04:23:33;17.10;;;11.60;;
76848;SDS011;65814;51.134;16.980;2023-02-13T04:26:05;13.90;;;9.40;;
76848;SDS011;65814;51.134;16.980;2023-02-13T04:28:35;17.40;;;9.80;;
76848;SDS011;65814;51.134;16.980;2023-02-13T04:31:03;14.20;;;10.00;;
76848;SDS011;65814;51.134;16.980;2023-02-13T04:33:31;15.60;;;9.80;;
76848;SDS011;65814;51.134;16.980;2023-02-13T04:35:59;11.70;;;8.70;;
76848;SDS011;65814;51.134;16.980;2023-02-13T04:38:27;13.70;;;9.50;;
76848;SDS011;65814;51.134;16.980;2023-02-13T04:40:55;18.00;;;10.10;;
76848;SDS011;65814;51.134;16.980;2023-02-13T04:43:23;14.30;;;9.80;;
76848;SDS011;65814;51.134;16.980;2023-02-13T04:45:51;15.00;;;10.10;;
76848;SDS011;65814;51.134;16.980;2023-02-13T04:48:20;13.10;;;9.20;;
76848;SDS011;65814;51.134;16.980;2023-02-13T04:50:47;18.70;;;12.20;;
76848;SDS011;65814;51.134;16.980;2023-02-13T04:53:15;12.50;;;8.90;;
76848;SDS011;65814;51.134;16.980;2023-02-13T04:55:43;14.20;;;8.50;;
76848;SDS011;65814;51.134;16.980;2023-02-13T04:58:11;12.90;;;9.10;;
76848;SDS011;65814;51.134;16.980;2023-02-13T05:00:39;16.90;;;10.40;;
76848;SDS011;65814;51.134;16.980;2023-02-13T05:03:08;18.00;;;9.70;;
76848;SDS011;65814;51.134;16.980;2023-02-13T05:05:37;16.80;;;9.10;;
76848;SDS011;65814;51.134;16.980;2023-02-13T05:08:07;13.10;;;8.60;;
76848;SDS011;65814;51.134;16.980;2023-02-13T05:10:35;14.30;;;8.80;;
76848;SDS011;65814;51.134;16.980;2023-02-13T05:13:04;14.10;;;8.50;;
76848;SDS011;65814;51.134;16.980;2023-02-13T05:15:31;10.90;;;7.30;;
76848;SDS011;65814;51.134;16.980;2023-02-13T05:17:59;13.70;;;8.50;;
76848;SDS011;65814;51.134;16.980;2023-02-13T05:20:29;12.00;;;7.20;;
76848;SDS011;65814;51.134;16.980;2023-02-13T05:22:57;13.00;;;8.40;;
76848;SDS011;65814;51.134;16.980;2023-02-13T05:25:44;10.80;;;7.70;;
76848;SDS011;65814;51.134;16.980;2023-02-13T05:28:12;12.80;;;7.90;;
76848;SDS011;65814;51.134;16.980;2023-02-13T05:30:58;11.40;;;6.70;;
76848;SDS011;65814;51.134;16.980;2023-02-13T05:33:27;10.30;;;6.60;;
76848;SDS011;65814;51.134;16.980;2023-02-13T05:35:55;12.00;;;6.70;;
76848;SDS011;65814;51.134;16.980;2023-02-13T05:38:23;9.60;;;6.40;;
76848;SDS011;65814;51.134;16.980;2023-02-13T05:40:51;8.80;;;6.90;;
76848;SDS011;65814;51.134;16.980;2023-02-13T05:43:19;10.80;;;6.70;;
76848;SDS011;65814;51.134;16.980;2023-02-13T05:45:47;10.70;;;7.80;;
76848;SDS011;65814;51.134;16.980;2023-02-13T05:48:15;13.10;;;7.20;;
76848;SDS011;65814;51.134;16.980;2023-02-13T05:50:44;10.50;;;7.00;;
76848;SDS011;65814;51.134;16.980;2023-02-13T05:53:13;10.30;;;7.00;;
76848;SDS011;65814;51.134;16.980;2023-02-13T05:55:41;11.30;;;6.60;;
76848;SDS011;65814;51.134;16.980;2023-02-13T05:58:09;12.90;;;7.10;;
76848;SDS011;65814;51.134;16.980;2023-02-13T06:00:38;14.10;;;7.60;;
76848;SDS011;65814;51.134;16.980;2023-02-13T06:03:06;14.00;;;8.00;;
76848;SDS011;65814;51.134;16.980;2023-02-13T06:05:34;12.20;;;7.50;;
76848;SDS011;65814;51.134;16.980;2023-02-13T06:08:02;12.00;;;7.10;;
76848;SDS011;65814;51.134;16.980;2023-02-13T06:10:30;10.20;;;6.50;;
76848;SDS011;65814;51.134;16.980;2023-02-13T06:12:58;11.70;;;7.60;;
76848;SDS011;65814;51.134;16.980;2023-02-13T06:15:26;10.10;;;6.80;;
76848;SDS011;65814;51.134;16.980;2023-02-13T06:17:54;12.90;;;7.30;;
76848;SDS011;65814;51.134;16.980;2023-02-13T06:20:22;11.30;;;7.90;;
76848;SDS011;65814;51.134;16.980;2023-02-13T06:22:50;13.70;;;7.40;;
76848;SDS011;65814;51.134;16.980;2023-02-13T06:25:18;11.50;;;7.60;;
76848;SDS011;65814;51.134;16.980;2023-02-13T06:27:47;11.10;;;7.20;;
76848;SDS011;65814;51.134;16.980;2023-02-13T06:30:16;11.20;;;7.50;;
76848;SDS011;65814;51.134;16.980;2023-02-13T06:32:45;12.80;;;7.30;;
76848;SDS011;65814;51.134;16.980;2023-02-13T06:35:14;11.00;;;7.50;;
76848;SDS011;65814;51.134;16.980;2023-02-13T06:37:42;11.40;;;7.50;;
76848;SDS011;65814;51.134;16.980;2023-02-13T06:40:11;12.20;;;8.60;;
76848;SDS011;65814;51.134;16.980;2023-02-13T06:42:41;12.90;;;7.90;;
76848;SDS011;65814;51.134;16.980;2023-02-13T06:45:09;12.60;;;8.00;;
76848;SDS011;65814;51.134;16.980;2023-02-13T06:47:47;11.80;;;7.90;;
76848;SDS011;65814;51.134;16.980;2023-02-13T06:50:15;10.50;;;6.30;;
76848;SDS011;65814;51.134;16.980;2023-02-13T06:52:44;11.50;;;7.20;;
76848;SDS011;65814;51.134;16.980;2023-02-13T06:57:45;16.80;;;8.20;;
76848;SDS011;65814;51.134;16.980;2023-02-13T07:00:14;13.50;;;7.90;;
76848;SDS011;65814;51.134;16.980;2023-02-13T07:02:43;11.90;;;6.90;;
76848;SDS011;65814;51.134;16.980;2023-02-13T07:05:12;11.30;;;7.00;;
76848;SDS011;65814;51.134;16.980;2023-02-13T07:07:40;11.90;;;6.50;;
76848;SDS011;65814;51.134;16.980;2023-02-13T07:10:10;11.20;;;8.30;;
76848;SDS011;65814;51.134;16.980;2023-02-13T07:12:39;11.20;;;7.30;;
76848;SDS011;65814;51.134;16.980;2023-02-13T07:15:07;10.50;;;6.80;;
76848;SDS011;65814;51.134;16.980;2023-02-13T07:17:35;11.30;;;7.10;;
76848;SDS011;65814;51.134;16.980;2023-02-13T07:20:04;12.40;;;7.50;;
76848;SDS011;65814;51.134;16.980;2023-02-13T07:22:32;12.50;;;6.90;;
76848;SDS011;65814;51.134;16.980;2023-02-13T07:25:00;11.30;;;7.70;;
76848;SDS011;65814;51.134;16.980;2023-02-13T07:27:28;9.00;;;7.10;;
76848;SDS011;65814;51.134;16.980;2023-02-13T07:29:56;12.20;;;7.90;;
76848;SDS011;65814;51.134;16.980;2023-02-13T07:32:24;12.90;;;7.80;;
76848;SDS011;65814;51.134;16.980;2023-02-13T07:34:53;13.10;;;8.10;;
76848;SDS011;65814;51.134;16.980;2023-02-13T07:37:29;12.50;;;7.10;;
76848;SDS011;65814;51.134;16.980;2023-02-13T07:39:58;11.70;;;7.60;;
76848;SDS011;65814;51.134;16.980;2023-02-13T07:42:26;12.60;;;7.30;;
76848;SDS011;65814;51.134;16.980;2023-02-13T07:44:54;9.90;;;6.30;;
76848;SDS011;65814;51.134;16.980;2023-02-13T07:47:21;15.40;;;8.20;;
76848;SDS011;65814;51.134;16.980;2023-02-13T07:49:50;14.80;;;8.80;;
76848;SDS011;65814;51.134;16.980;2023-02-13T07:52:17;11.90;;;8.00;;
76848;SDS011;65814;51.134;16.980;2023-02-13T07:54:45;11.70;;;8.00;;
76848;SDS011;65814;51.134;16.980;2023-02-13T07:57:18;14.00;;;9.00;;
76848;SDS011;65814;51.134;16.980;2023-02-13T07:59:45;11.90;;;6.90;;
76848;SDS011;65814;51.134;16.980;2023-02-13T08:02:14;12.90;;;8.10;;
76848;SDS011;65814;51.134;16.980;2023-02-13T08:04:42;15.70;;;8.80;;
76848;SDS011;65814;51.134;16.980;2023-02-13T08:07:13;16.90;;;8.30;;
76848;SDS011;65814;51.134;16.980;2023-02-13T08:09:43;16.50;;;9.00;;
76848;SDS011;65814;51.134;16.980;2023-02-13T08:12:32;13.70;;;8.60;;
76848;SDS011;65814;51.134;16.980;2023-02-13T08:15:02;14.00;;;9.90;;
76848;SDS011;65814;51.134;16.980;2023-02-13T08:17:30;18.20;;;9.20;;
76848;SDS011;65814;51.134;16.980;2023-02-13T08:19:58;15.50;;;9.10;;
76848;SDS011;65814;51.134;16.980;2023-02-13T08:22:26;18.90;;;10.90;;
76848;SDS011;65814;51.134;16.980;2023-02-13T08:24:54;18.30;;;11.50;;
76848;SDS011;65814;51.134;16.980;2023-02-13T08:27:22;18.40;;;10.40;;
76848;SDS011;65814;51.134;16.980;2023-02-13T08:29:50;20.90;;;10.00;;
76848;SDS011;65814;51.134;16.980;2023-02-13T08:32:18;17.10;;;9.40;;
76848;SDS011;65814;51.134;16.980;2023-02-13T08:34:47;18.00;;;9.60;;
76848;SDS011;65814;51.134;16.980;2023-02-13T08:37:14;20.20;;;9.40;;
76848;SDS011;65814;51.134;16.980;2023-02-13T08:39:43;20.00;;;9.50;;
76848;SDS011;65814;51.134;16.980;2023-02-13T08:42:10;22.80;;;10.80;;
76848;SDS011;65814;51.134;16.980;2023-02-13T08:44:42;20.80;;;9.80;;
76848;SDS011;65814;51.134;16.980;2023-02-13T08:47:10;19.90;;;10.60;;
76848;SDS011;65814;51.134;16.980;2023-02-13T08:49:38;16.40;;;8.70;;
76848;SDS011;65814;51.134;16.980;2023-02-13T08:52:06;18.70;;;8.80;;
76848;SDS011;65814;51.134;16.980;2023-02-13T08:54:34;15.00;;;8.80;;
76848;SDS011;65814;51.134;16.980;2023-02-13T08:57:05;17.50;;;9.50;;
76848;SDS011;65814;51.134;16.980;2023-02-13T08:59:33;18.90;;;9.40;;
76848;SDS011;65814;51.134;16.980;2023-02-13T09:02:00;18.60;;;8.40;;
76848;SDS011;65814;51.134;16.980;2023-02-13T09:04:29;17.80;;;9.30;;
76848;SDS011;65814;51.134;16.980;2023-02-13T09:06:57;16.00;;;8.10;;
76848;SDS011;65814;51.134;16.980;2023-02-13T09:09:25;13.10;;;7.50;;
76848;SDS011;65814;51.134;16.980;2023-02-13T09:11:53;13.80;;;6.80;;
76848;SDS011;65814;51.134;16.980;2023-02-13T09:14:24;14.60;;;7.20;;
76848;SDS011;65814;51.134;16.980;2023-02-13T09:16:52;14.50;;;7.00;;
76848;SDS011;65814;51.134;16.980;2023-02-13T09:19:20;9.40;;;5.70;;
76848;SDS011;65814;51.134;16.980;2023-02-13T09:21:48;7.50;;;4.90;;
76848;SDS011;65814;51.134;16.980;2023-02-13T09:24:16;8.20;;;4.30;;
76848;SDS011;65814;51.134;16.980;2023-02-13T09:26:44;5.40;;;3.10;;
76848;SDS011;65814;51.134;16.980;2023-02-13T09:29:11;5.10;;;3.40;;
76848;SDS011;65814;51.134;16.980;2023-02-13T09:31:40;5.70;;;2.90;;
76848;SDS011;65814;51.134;16.980;2023-02-13T09:34:08;4.00;;;2.50;;
76848;SDS011;65814;51.134;16.980;2023-02-13T09:36:35;4.30;;;2.40;;
76848;SDS011;65814;51.134;16.980;2023-02-13T09:39:03;4.30;;;2.10;;
76848;SDS011;65814;51.134;16.980;2023-02-13T09:41:33;3.50;;;2.20;;
76848;SDS011;65814;51.134;16.980;2023-02-13T09:44:11;3.10;;;2.00;;
76848;SDS011;65814;51.134;16.980;2023-02-13T09:47:05;3.10;;;2.00;;
76848;SDS011;65814;51.134;16.980;2023-02-13T09:49:39;4.20;;;2.20;;
76848;SDS011;65814;51.134;16.980;2023-02-13T09:52:10;3.50;;;2.50;;
76848;SDS011;65814;51.134;16.980;2023-02-13T09:54:38;3.00;;;2.20;;
76848;SDS011;65814;51.134;16.980;2023-02-13T09:57:07;4.00;;;2.00;;
76848;SDS011;65814;51.134;16.980;2023-02-13T10:00:03;4.40;;;2.20;;
76848;SDS011;65814;51.134;16.980;2023-02-13T10:06:11;2.70;;;1.70;;
76848;SDS011;65814;51.134;16.980;2023-02-13T10:16:27;3.40;;;2.50;;
76848;SDS011;65814;51.134;16.980;2023-02-13T10:19:04;5.50;;;2.50;;
76848;SDS011;65814;51.134;16.980;2023-02-13T10:21:46;6.40;;;2.20;;
76848;SDS011;65814;51.134;16.980;2023-02-13T10:27:21;2.80;;;2.30;;
76848;SDS011;65814;51.134;16.980;2023-02-13T10:29:58;4.70;;;2.00;;
76848;SDS011;65814;51.134;16.980;2023-02-13T10:32:38;3.50;;;2.30;;
76848;SDS011;65814;51.134;16.980;2023-02-13T10:38:15;3.60;;;2.40;;
76848;SDS011;65814;51.134;16.980;2023-02-13T10:43:41;5.20;;;2.40;;
76848;SDS011;65814;51.134;16.980;2023-02-13T10:51:42;4.20;;;2.80;;
76848;SDS011;65814;51.134;16.980;2023-02-13T10:54:18;4.60;;;2.20;;
76848;SDS011;65814;51.134;16.980;2023-02-13T11:02:40;4.70;;;2.70;;
76848;SDS011;65814;51.134;16.980;2023-02-13T11:07:48;4.00;;;2.70;;
76848;SDS011;65814;51.134;16.980;2023-02-13T11:10:26;4.80;;;2.90;;
76848;SDS011;65814;51.134;16.980;2023-02-13T11:12:54;3.40;;;2.60;;
76848;SDS011;65814;51.134;16.980;2023-02-13T11:15:24;5.00;;;3.00;;
76848;SDS011;65814;51.134;16.980;2023-02-13T11:17:54;5.10;;;3.30;;
76848;SDS011;65814;51.134;16.980;2023-02-13T11:20:38;5.50;;;3.30;;
76848;SDS011;65814;51.134;16.980;2023-02-13T11:25:55;3.90;;;2.90;;
76848;SDS011;65814;51.134;16.980;2023-02-13T11:28:27;4.20;;;2.60;;
76848;SDS011;65814;51.134;16.980;2023-02-13T11:31:11;5.40;;;3.30;;
76848;SDS011;65814;51.134;16.980;2023-02-13T11:33:41;6.90;;;3.20;;
76848;SDS011;65814;51.134;16.980;2023-02-13T11:36:12;5.40;;;3.70;;
76848;SDS011;65814;51.134;16.980;2023-02-13T11:38:42;5.60;;;3.40;;
76848;SDS011;65814;51.134;16.980;2023-02-13T11:41:11;4.50;;;2.60;;
76848;SDS011;65814;51.134;16.980;2023-02-13T11:43:45;3.80;;;2.60;;
76848;SDS011;65814;51.134;16.980;2023-02-13T11:46:17;3.50;;;2.50;;
76848;SDS011;65814;51.134;16.980;2023-02-13T11:48:56;4.20;;;2.70;;
76848;SDS011;65814;51.134;16.980;2023-02-13T11:57:00;4.90;;;2.60;;
76848;SDS011;65814;51.134;16.980;2023-02-13T11:59:50;4.90;;;2.40;;
76848;SDS011;65814;51.134;16.980;2023-02-13T12:02:22;3.40;;;2.50;;
76848;SDS011;65814;51.134;16.980;2023-02-13T12:04:53;3.20;;;2.30;;
76848;SDS011;65814;51.134;16.980;2023-02-13T12:07:38;3.10;;;2.30;;
76848;SDS011;65814;51.134;16.980;2023-02-13T12:10:20;3.30;;;2.70;;
76848;SDS011;65814;51.134;16.980;2023-02-13T12:12:57;4.20;;;3.60;;
76848;SDS011;65814;51.134;16.980;2023-02-13T12:15:30;5.00;;;3.30;;
76848;SDS011;65814;51.134;16.980;2023-02-13T12:23:31;4.40;;;2.80;;
76848;SDS011;65814;51.134;16.980;2023-02-13T12:26:14;4.70;;;3.10;;
76848;SDS011;65814;51.134;16.980;2023-02-13T12:29:20;4.20;;;2.70;;
76848;SDS011;65814;51.134;16.980;2023-02-13T12:32:17;3.60;;;3.20;;
76848;SDS011;65814;51.134;16.980;2023-02-13T12:34:53;4.90;;;3.30;;
76848;SDS011;65814;51.134;16.980;2023-02-13T13:05:03;3.30;;;2.40;;
76848;SDS011;65814;51.134;16.980;2023-02-13T13:15:52;6.30;;;2.60;;
76848;SDS011;65814;51.134;16.980;2023-02-13T13:18:38;3.00;;;2.20;;
76848;SDS011;65814;51.134;16.980;2023-02-13T13:26:50;3.80;;;2.10;;
76848;SDS011;65814;51.134;16.980;2023-02-13T13:29:22;4.60;;;2.60;;
76848;SDS011;65814;51.134;16.980;2023-02-13T13:31:55;4.40;;;3.20;;
76848;SDS011;65814;51.134;16.980;2023-02-13T13:34:28;4.90;;;2.10;;
76848;SDS011;65814;51.134;16.980;2023-02-13T13:42:51;4.30;;;2.60;;
76848;SDS011;65814;51.134;16.980;2023-02-13T13:50:58;3.60;;;2.20;;
76848;SDS011;65814;51.134;16.980;2023-02-13T13:53:26;3.30;;;2.40;;
76848;SDS011;65814;51.134;16.980;2023-02-13T13:58:42;3.50;;;2.60;;
76848;SDS011;65814;51.134;16.980;2023-02-13T14:03:47;3.00;;;2.40;;
76848;SDS011;65814;51.134;16.980;2023-02-13T14:06:24;4.40;;;3.10;;
76848;SDS011;65814;51.134;16.980;2023-02-13T14:09:01;4.50;;;2.80;;
76848;SDS011;65814;51.134;16.980;2023-02-13T14:16:54;4.30;;;2.80;;
76848;SDS011;65814;51.134;16.980;2023-02-13T14:24:52;4.40;;;3.30;;
76848;SDS011;65814;51.134;16.980;2023-02-13T14:27:21;4.60;;;3.20;;
76848;SDS011;65814;51.134;16.980;2023-02-13T14:29:50;6.10;;;3.80;;
76848;SDS011;65814;51.134;16.980;2023-02-13T14:32:21;4.70;;;3.60;;
76848;SDS011;65814;51.134;16.980;2023-02-13T14:34:56;6.10;;;3.30;;
76848;SDS011;65814;51.134;16.980;2023-02-13T14:37:34;5.00;;;2.90;;
76848;SDS011;65814;51.134;16.980;2023-02-13T14:45:32;4.50;;;3.00;;
76848;SDS011;65814;51.134;16.980;2023-02-13T14:48:07;6.20;;;3.70;;
76848;SDS011;65814;51.134;16.980;2023-02-13T14:50:50;5.00;;;3.40;;
76848;SDS011;65814;51.134;16.980;2023-02-13T14:53:25;6.80;;;3.20;;
76848;SDS011;65814;51.134;16.980;2023-02-13T14:56:01;5.00;;;3.40;;
76848;SDS011;65814;51.134;16.980;2023-02-13T14:58:34;5.30;;;3.40;;
76848;SDS011;65814;51.134;16.980;2023-02-13T15:01:05;5.80;;;3.80;;
76848;SDS011;65814;51.134;16.980;2023-02-13T15:06:23;5.10;;;3.40;;
76848;SDS011;65814;51.134;16.980;2023-02-13T15:08:53;7.40;;;3.40;;
76848;SDS011;65814;51.134;16.980;2023-02-13T15:16:46;5.80;;;3.70;;
76848;SDS011;65814;51.134;16.980;2023-02-13T15:19:17;7.20;;;3.60;;
76848;SDS011;65814;51.134;16.980;2023-02-13T15:21:53;5.00;;;3.30;;
76848;SDS011;65814;51.134;16.980;2023-02-13T15:24:23;5.10;;;3.70;;
76848;SDS011;65814;51.134;16.980;2023-02-13T15:26:54;4.70;;;3.50;;
76848;SDS011;65814;51.134;16.980;2023-02-13T15:29:32;5.20;;;3.30;;
76848;SDS011;65814;51.134;16.980;2023-02-13T15:32:16;4.40;;;3.10;;
76848;SDS011;65814;51.134;16.980;2023-02-13T15:34:46;5.80;;;3.80;;
76848;SDS011;65814;51.134;16.980;2023-02-13T15:37:21;5.50;;;3.40;;
76848;SDS011;65814;51.134;16.980;2023-02-13T15:39:50;5.30;;;3.80;;
76848;SDS011;65814;51.134;16.980;2023-02-13T15:42:18;5.80;;;3.40;;
76848;SDS011;65814;51.134;16.980;2023-02-13T15:44:47;7.50;;;3.20;;
76848;SDS011;65814;51.134;16.980;2023-02-13T15:49:56;5.20;;;3.00;;
76848;SDS011;65814;51.134;16.980;2023-02-13T15:52:31;6.80;;;3.70;;
76848;SDS011;65814;51.134;16.980;2023-02-13T15:55:01;4.60;;;3.40;;
76848;SDS011;65814;51.134;16.980;2023-02-13T15:57:30;8.00;;;3.60;;
76848;SDS011;65814;51.134;16.980;2023-02-13T15:59:58;5.40;;;3.60;;
76848;SDS011;65814;51.134;16.980;2023-02-13T16:02:28;5.60;;;3.40;;
76848;SDS011;65814;51.134;16.980;2023-02-13T16:05:01;6.20;;;3.80;;
76848;SDS011;65814;51.134;16.980;2023-02-13T16:07:29;6.00;;;3.50;;
76848;SDS011;65814;51.134;16.980;2023-02-13T16:12:45;6.80;;;4.50;;
76848;SDS011;65814;51.134;16.980;2023-02-13T16:15:15;7.10;;;4.30;;
76848;SDS011;65814;51.134;16.980;2023-02-13T16:17:45;6.10;;;4.50;;
76848;SDS011;65814;51.134;16.980;2023-02-13T16:20:18;8.80;;;4.00;;
76848;SDS011;65814;51.134;16.980;2023-02-13T16:22:55;6.50;;;4.20;;
76848;SDS011;65814;51.134;16.980;2023-02-13T16:25:32;8.80;;;4.90;;
76848;SDS011;65814;51.134;16.980;2023-02-13T16:30:40;8.60;;;5.80;;
76848;SDS011;65814;51.134;16.980;2023-02-13T16:35:45;9.40;;;5.90;;
76848;SDS011;65814;51.134;16.980;2023-02-13T16:41:03;14.10;;;7.40;;
76848;SDS011;65814;51.134;16.980;2023-02-13T16:43:45;15.50;;;9.30;;
76848;SDS011;65814;51.134;16.980;2023-02-13T16:48:42;15.40;;;10.50;;
76848;SDS011;65814;51.134;16.980;2023-02-13T16:51:12;16.10;;;9.00;;
76848;SDS011;65814;51.134;16.980;2023-02-13T16:53:40;14.60;;;8.60;;
76848;SDS011;65814;51.134;16.980;2023-02-13T16:56:08;17.20;;;10.70;;
76848;SDS011;65814;51.134;16.980;2023-02-13T16:58:37;14.60;;;10.20;;
76848;SDS011;65814;51.134;16.980;2023-02-13T17:01:05;18.90;;;10.40;;
76848;SDS011;65814;51.134;16.980;2023-02-13T17:03:33;16.60;;;10.10;;
76848;SDS011;65814;51.134;16.980;2023-02-13T17:06:01;22.20;;;11.50;;
76848;SDS011;65814;51.134;16.980;2023-02-13T17:08:30;20.10;;;11.80;;
76848;SDS011;65814;51.134;16.980;2023-02-13T17:13:33;17.40;;;10.60;;
76848;SDS011;65814;51.134;16.980;2023-02-13T17:16:01;16.20;;;10.60;;
76848;SDS011;65814;51.134;16.980;2023-02-13T17:18:29;15.40;;;10.60;;
76848;SDS011;65814;51.134;16.980;2023-02-13T17:20:57;17.20;;;10.20;;
76848;SDS011;65814;51.134;16.980;2023-02-13T17:23:26;15.20;;;9.80;;
76848;SDS011;65814;51.134;16.980;2023-02-13T17:25:54;15.10;;;9.00;;
76848;SDS011;65814;51.134;16.980;2023-02-13T17:28:26;13.60;;;8.10;;
76848;SDS011;65814;51.134;16.980;2023-02-13T17:30:56;15.30;;;9.50;;
76848;SDS011;65814;51.134;16.980;2023-02-13T17:33:29;15.00;;;9.40;;
76848;SDS011;65814;51.134;16.980;2023-02-13T17:36:00;15.30;;;9.00;;
76848;SDS011;65814;51.134;16.980;2023-02-13T17:38:29;14.10;;;9.30;;
76848;SDS011;65814;51.134;16.980;2023-02-13T17:40:56;15.90;;;8.00;;
76848;SDS011;65814;51.134;16.980;2023-02-13T17:43:25;13.40;;;8.90;;
76848;SDS011;65814;51.134;16.980;2023-02-13T17:45:54;15.40;;;9.10;;
76848;SDS011;65814;51.134;16.980;2023-02-13T17:48:22;13.50;;;9.10;;
76848;SDS011;65814;51.134;16.980;2023-02-13T17:50:50;12.90;;;8.40;;
76848;SDS011;65814;51.134;16.980;2023-02-13T17:53:23;17.50;;;9.70;;
76848;SDS011;65814;51.134;16.980;2023-02-13T17:55:52;14.40;;;8.90;;
76848;SDS011;65814;51.134;16.980;2023-02-13T17:58:20;17.10;;;9.50;;
76848;SDS011;65814;51.134;16.980;2023-02-13T18:00:48;13.50;;;9.40;;
76848;SDS011;65814;51.134;16.980;2023-02-13T18:03:16;12.40;;;8.20;;
76848;SDS011;65814;51.134;16.980;2023-02-13T18:05:48;15.00;;;8.90;;
76848;SDS011;65814;51.134;16.980;2023-02-13T18:08:16;13.70;;;8.70;;